createdAt,value
2022-11-30T00:00:41.757Z,5.06
2022-11-30T00:01:41.760Z,5.09
2022-11-30T00:02:41.877Z,5.11
2022-11-30T00:03:41.752Z,5.12
2022-11-30T00:04:41.772Z,5.14
2022-11-30T00:05:41.794Z,5.15
2022-11-30T00:06:41.760Z,5.16
2022-11-30T00:07:41.822Z,5.17
2022-11-30T00:08:41.775Z,5.17
2022-11-30T00:09:41.775Z,5.18
2022-11-30T00:10:41.786Z,5.19
2022-11-30T00:11:41.785Z,5.20
2022-11-30T00:12:41.766Z,5.20
2022-11-30T00:13:41.784Z,5.18
2022-11-30T00:14:41.759Z,5.19
2022-11-30T00:15:41.794Z,5.17
2022-11-30T00:16:41.805Z,5.18
2022-11-30T00:17:41.770Z,5.18
2022-11-30T00:18:41.779Z,5.18
2022-11-30T00:19:41.774Z,5.20
2022-11-30T00:20:41.785Z,5.19
2022-11-30T00:21:41.794Z,5.21
2022-11-30T00:22:41.809Z,5.21
2022-11-30T00:23:41.794Z,5.21
2022-11-30T00:24:41.792Z,5.21
2022-11-30T00:25:41.775Z,5.21
2022-11-30T00:26:41.812Z,5.22
2022-11-30T00:27:41.820Z,5.22
2022-11-30T00:28:41.795Z,5.22
2022-11-30T00:29:41.809Z,5.23
2022-11-30T00:30:41.831Z,5.24
2022-11-30T00:31:41.799Z,5.26
2022-11-30T00:32:41.781Z,5.27
2022-11-30T00:33:41.770Z,5.27
2022-11-30T00:34:41.895Z,5.29
2022-11-30T00:35:41.794Z,5.29
2022-11-30T00:36:41.796Z,5.31
2022-11-30T00:37:41.789Z,5.31
2022-11-30T00:38:41.783Z,5.33
2022-11-30T00:39:41.776Z,5.33
2022-11-30T00:40:41.794Z,5.34
2022-11-30T00:41:41.810Z,5.35
2022-11-30T00:42:41.815Z,5.35
2022-11-30T00:43:41.798Z,5.39
2022-11-30T00:44:41.795Z,5.40
2022-11-30T00:45:41.841Z,5.41
2022-11-30T00:46:41.813Z,5.42
2022-11-30T00:47:41.820Z,5.41
2022-11-30T00:48:41.820Z,5.40
2022-11-30T00:49:41.820Z,5.39
2022-11-30T00:50:41.831Z,5.40
2022-11-30T00:51:41.816Z,5.38
2022-11-30T00:52:41.803Z,5.41
2022-11-30T00:53:41.824Z,5.40
2022-11-30T00:54:41.809Z,5.39
2022-11-30T00:55:41.844Z,5.37
2022-11-30T00:56:41.826Z,5.36
2022-11-30T00:57:41.842Z,5.36
2022-11-30T00:58:41.792Z,5.34
2022-11-30T00:59:41.822Z,5.34
2022-11-30T01:00:41.797Z,5.32
2022-11-30T01:01:41.878Z,5.31
2022-11-30T01:02:41.894Z,5.29
2022-11-30T01:03:41.834Z,5.28
2022-11-30T01:04:41.815Z,5.26
2022-11-30T01:05:41.845Z,5.25
2022-11-30T01:06:41.847Z,5.25
2022-11-30T01:07:41.894Z,5.24
2022-11-30T01:08:41.825Z,5.24
2022-11-30T01:09:41.834Z,5.26
2022-11-30T01:10:41.814Z,5.26
2022-11-30T01:11:41.813Z,5.27
2022-11-30T01:12:41.842Z,5.28
2022-11-30T01:13:41.872Z,5.29
2022-11-30T01:14:41.841Z,5.29
2022-11-30T01:15:41.934Z,5.31
2022-11-30T01:16:41.882Z,5.32
2022-11-30T01:17:41.887Z,5.34
2022-11-30T01:18:41.897Z,5.37
2022-11-30T01:19:41.932Z,5.36
2022-11-30T01:20:41.950Z,5.36
2022-11-30T01:21:41.965Z,5.36
2022-11-30T01:22:41.960Z,5.33
2022-11-30T01:23:41.967Z,5.34
2022-11-30T01:24:41.976Z,5.33
2022-11-30T01:25:42.013Z,5.34
2022-11-30T01:26:42.034Z,5.33
2022-11-30T01:27:42.027Z,5.35
2022-11-30T01:28:42.030Z,5.35
2022-11-30T01:29:42.056Z,5.37
2022-11-30T01:30:42.086Z,5.39
2022-11-30T01:31:42.059Z,5.39
2022-11-30T01:32:42.083Z,5.41
2022-11-30T01:33:42.090Z,5.42
2022-11-30T01:34:42.106Z,5.44
2022-11-30T01:35:42.125Z,5.44
2022-11-30T01:36:42.118Z,5.45
2022-11-30T01:37:42.145Z,5.47
2022-11-30T01:38:42.219Z,5.47
2022-11-30T01:39:42.174Z,5.48
2022-11-30T01:40:42.206Z,5.49
2022-11-30T01:41:42.206Z,5.49
2022-11-30T01:42:42.229Z,5.51
2022-11-30T01:43:42.205Z,5.52
2022-11-30T01:44:42.192Z,5.52
2022-11-30T01:45:42.233Z,5.52
2022-11-30T01:46:42.251Z,5.53
2022-11-30T01:47:42.302Z,5.53
2022-11-30T01:48:42.365Z,5.53
2022-11-30T01:49:42.277Z,5.53
2022-11-30T01:50:42.287Z,5.53
2022-11-30T01:51:42.312Z,5.53
2022-11-30T01:52:42.328Z,5.54
2022-11-30T01:53:42.332Z,5.54
2022-11-30T01:54:42.330Z,5.54
2022-11-30T01:55:42.383Z,5.55
2022-11-30T01:56:42.369Z,5.55
2022-11-30T01:57:42.403Z,5.54
2022-11-30T01:58:42.402Z,5.55
2022-11-30T01:59:42.397Z,5.54
2022-11-30T02:01:12.425Z,5.54
2022-11-30T02:02:12.455Z,5.54
2022-11-30T02:03:12.404Z,5.54
2022-11-30T02:04:12.402Z,5.54
2022-11-30T02:05:12.400Z,5.55
2022-11-30T02:06:12.398Z,5.55
2022-11-30T02:07:12.441Z,5.56
2022-11-30T02:08:12.464Z,5.56
2022-11-30T02:09:12.408Z,5.57
2022-11-30T02:10:12.438Z,5.60
2022-11-30T02:11:12.420Z,5.60
2022-11-30T02:12:12.447Z,5.58
2022-11-30T02:13:12.421Z,5.56
2022-11-30T02:14:12.419Z,5.55
2022-11-30T02:15:12.424Z,5.53
2022-11-30T02:16:12.483Z,5.53
2022-11-30T02:17:12.432Z,5.51
2022-11-30T02:18:12.421Z,5.51
2022-11-30T02:19:12.389Z,5.50
2022-11-30T02:20:12.429Z,5.49
2022-11-30T02:21:12.441Z,5.49
2022-11-30T02:22:12.432Z,5.48
2022-11-30T02:23:12.435Z,5.50
2022-11-30T02:24:12.424Z,5.49
2022-11-30T02:25:12.440Z,5.50
2022-11-30T02:26:12.438Z,5.53
2022-11-30T02:27:12.419Z,5.53
2022-11-30T02:28:12.460Z,5.53
2022-11-30T02:29:12.449Z,5.55
2022-11-30T02:30:12.433Z,5.56
2022-11-30T02:31:12.521Z,5.57
2022-11-30T02:32:12.444Z,5.60
2022-11-30T02:33:12.453Z,5.60
2022-11-30T02:34:12.426Z,5.61
2022-11-30T02:35:12.445Z,5.61
2022-11-30T02:36:12.577Z,5.62
2022-11-30T02:37:12.595Z,5.64
2022-11-30T02:38:12.615Z,5.63
2022-11-30T02:39:12.607Z,5.65
2022-11-30T02:40:12.617Z,5.65
2022-11-30T02:41:12.633Z,5.66
2022-11-30T02:42:12.625Z,5.67
2022-11-30T02:43:12.673Z,5.66
2022-11-30T02:44:12.643Z,5.67
2022-11-30T02:45:12.695Z,5.68
2022-11-30T02:46:12.741Z,5.67
2022-11-30T02:47:12.712Z,5.67
2022-11-30T02:48:12.735Z,5.68
2022-11-30T02:49:12.717Z,5.67
2022-11-30T02:50:12.708Z,5.68
2022-11-30T02:51:12.738Z,5.67
2022-11-30T02:52:12.777Z,5.69
2022-11-30T02:53:12.789Z,5.70
2022-11-30T02:54:12.820Z,5.70
2022-11-30T02:55:12.814Z,5.72
2022-11-30T02:56:12.799Z,5.73
2022-11-30T02:57:12.852Z,5.73
2022-11-30T02:58:12.845Z,5.75
2022-11-30T02:59:12.882Z,5.74
2022-11-30T03:00:12.873Z,5.75
2022-11-30T03:01:12.919Z,5.76
2022-11-30T03:02:12.884Z,5.77
2022-11-30T03:03:12.906Z,5.77
2022-11-30T03:04:12.914Z,5.77
2022-11-30T03:05:12.932Z,5.78
2022-11-30T03:06:12.958Z,5.78
2022-11-30T03:07:12.924Z,5.79
2022-11-30T03:08:12.955Z,5.80
2022-11-30T03:09:12.944Z,5.80
2022-11-30T03:10:12.973Z,5.80
2022-11-30T03:11:13.024Z,5.79
2022-11-30T03:12:12.983Z,5.79
2022-11-30T03:13:13.019Z,5.79
2022-11-30T03:14:13.023Z,5.80
2022-11-30T03:15:13.021Z,5.80
2022-11-30T03:16:13.133Z,5.79
2022-11-30T03:17:13.075Z,5.81
2022-11-30T03:18:13.079Z,5.82
2022-11-30T03:19:13.114Z,5.81
2022-11-30T03:20:13.106Z,5.82
2022-11-30T03:21:13.135Z,5.82
2022-11-30T03:22:13.144Z,5.83
2022-11-30T03:23:13.138Z,5.83
2022-11-30T03:24:13.131Z,5.84
2022-11-30T03:25:13.171Z,5.84
2022-11-30T03:26:13.199Z,5.84
2022-11-30T03:27:13.183Z,5.83
2022-11-30T03:28:13.168Z,5.84
2022-11-30T03:29:13.196Z,5.82
2022-11-30T03:30:13.195Z,5.83
2022-11-30T03:31:13.271Z,5.84
2022-11-30T03:32:13.233Z,5.84
2022-11-30T03:33:13.253Z,5.85
2022-11-30T03:34:13.242Z,5.84
2022-11-30T03:35:13.281Z,5.85
2022-11-30T03:36:13.296Z,5.86
2022-11-30T03:37:13.301Z,5.85
2022-11-30T03:38:13.327Z,5.86
2022-11-30T03:39:13.323Z,5.88
2022-11-30T03:40:13.334Z,5.86
2022-11-30T03:41:13.331Z,5.87
2022-11-30T03:42:13.361Z,5.88
2022-11-30T03:43:13.406Z,5.89
2022-11-30T03:44:13.385Z,5.89
2022-11-30T03:45:13.389Z,5.90
2022-11-30T03:46:13.471Z,5.91
2022-11-30T03:47:13.403Z,5.91
2022-11-30T03:48:13.431Z,5.90
2022-11-30T03:49:13.436Z,5.90
2022-11-30T03:50:13.466Z,5.91
2022-11-30T03:51:13.454Z,5.91
2022-11-30T03:52:13.465Z,5.90
2022-11-30T03:53:13.490Z,5.91
2022-11-30T03:54:13.492Z,5.92
2022-11-30T03:55:13.527Z,5.92
2022-11-30T03:56:13.509Z,5.91
2022-11-30T03:57:13.528Z,5.90
2022-11-30T03:58:13.535Z,5.90
2022-11-30T03:59:13.566Z,5.91
2022-11-30T04:00:13.585Z,5.91
2022-11-30T04:01:13.593Z,5.90
2022-11-30T04:02:13.638Z,5.91
2022-11-30T04:03:13.653Z,5.91
2022-11-30T04:04:13.630Z,5.90
2022-11-30T04:05:13.638Z,5.91
2022-11-30T04:06:13.642Z,5.90
2022-11-30T04:07:13.887Z,5.89
2022-11-30T04:08:13.666Z,5.90
2022-11-30T04:09:13.672Z,5.90
2022-11-30T04:10:13.714Z,5.90
2022-11-30T04:11:13.691Z,5.89
2022-11-30T04:12:13.729Z,5.89
2022-11-30T04:13:13.728Z,5.89
2022-11-30T04:14:13.743Z,5.87
2022-11-30T04:15:13.770Z,5.88
2022-11-30T04:16:13.856Z,5.88
2022-11-30T04:17:13.757Z,5.88
2022-11-30T04:18:13.777Z,5.89
2022-11-30T04:19:13.804Z,5.88
2022-11-30T04:20:13.808Z,5.89
2022-11-30T04:21:13.822Z,5.89
2022-11-30T04:22:13.842Z,5.89
2022-11-30T04:23:13.823Z,5.89
2022-11-30T04:24:13.865Z,5.89
2022-11-30T04:25:13.879Z,5.88
2022-11-30T04:26:13.906Z,5.89
2022-11-30T04:27:13.905Z,5.88
2022-11-30T04:28:13.911Z,5.89
2022-11-30T04:29:13.907Z,5.89
2022-11-30T04:30:13.931Z,5.89
2022-11-30T04:31:13.964Z,5.88
2022-11-30T04:32:13.983Z,5.88
2022-11-30T04:33:13.960Z,5.89
2022-11-30T04:34:13.985Z,5.87
2022-11-30T04:35:13.998Z,5.85
2022-11-30T04:36:14.007Z,5.86
2022-11-30T04:37:14.022Z,5.85
2022-11-30T04:38:14.035Z,5.86
2022-11-30T04:39:14.040Z,5.87
2022-11-30T04:40:14.053Z,5.87
2022-11-30T04:41:14.068Z,5.89
2022-11-30T04:42:14.068Z,5.90
2022-11-30T04:43:14.139Z,5.93
2022-11-30T04:44:14.095Z,5.93
2022-11-30T04:45:14.097Z,5.94
2022-11-30T04:46:14.185Z,5.94
2022-11-30T04:47:14.131Z,5.94
2022-11-30T04:48:14.150Z,5.95
2022-11-30T04:49:14.156Z,5.96
2022-11-30T04:50:14.174Z,5.96
2022-11-30T04:51:14.171Z,5.96
2022-11-30T04:52:14.213Z,5.97
2022-11-30T04:53:14.224Z,5.97
2022-11-30T04:54:14.222Z,5.96
2022-11-30T04:55:14.240Z,5.98
2022-11-30T04:56:14.272Z,5.98
2022-11-30T04:57:14.239Z,5.98
2022-11-30T04:58:14.270Z,5.99
2022-11-30T04:59:14.276Z,5.97
2022-11-30T05:00:14.292Z,5.97
2022-11-30T05:01:14.281Z,5.96
2022-11-30T05:02:14.296Z,5.97
2022-11-30T05:03:14.338Z,5.97
2022-11-30T05:04:14.397Z,5.97
2022-11-30T05:05:14.353Z,5.96
2022-11-30T05:06:14.367Z,5.95
2022-11-30T05:07:14.362Z,5.96
2022-11-30T05:08:14.378Z,5.96
2022-11-30T05:09:14.394Z,5.97
2022-11-30T05:10:14.389Z,5.97
2022-11-30T05:11:14.423Z,5.98
2022-11-30T05:12:14.419Z,5.98
2022-11-30T05:13:14.452Z,5.99
2022-11-30T05:14:14.470Z,6.00
2022-11-30T05:15:14.455Z,6.00
2022-11-30T05:16:14.519Z,6.01
2022-11-30T05:17:14.497Z,6.03
2022-11-30T05:18:14.507Z,6.03
2022-11-30T05:19:14.519Z,6.02
2022-11-30T05:20:14.533Z,6.02
2022-11-30T05:21:14.537Z,6.03
2022-11-30T05:22:14.572Z,6.02
2022-11-30T05:23:14.585Z,6.03
2022-11-30T05:24:14.587Z,6.04
2022-11-30T05:25:14.608Z,6.02
2022-11-30T05:26:14.594Z,6.03
2022-11-30T05:27:19.451Z,6.03
2022-11-30T05:28:14.615Z,6.04
2022-11-30T05:29:14.619Z,6.04
2022-11-30T05:30:14.625Z,6.05
2022-11-30T05:31:14.646Z,6.05
2022-11-30T05:32:14.613Z,6.04
2022-11-30T05:33:14.604Z,6.04
2022-11-30T05:34:14.607Z,6.05
2022-11-30T05:35:14.631Z,6.05
2022-11-30T05:36:14.626Z,6.06
2022-11-30T05:37:14.602Z,6.07
2022-11-30T05:38:14.601Z,6.05
2022-11-30T05:39:14.631Z,6.06
2022-11-30T05:40:14.630Z,6.07
2022-11-30T05:41:14.635Z,6.05
2022-11-30T05:42:14.627Z,6.05
2022-11-30T05:43:14.613Z,6.05
2022-11-30T05:44:14.617Z,6.05
2022-11-30T05:45:14.642Z,6.05
2022-11-30T05:46:14.652Z,6.05
2022-11-30T05:47:14.661Z,6.05
2022-11-30T05:48:14.622Z,6.05
2022-11-30T05:49:14.641Z,6.05
2022-11-30T05:50:14.660Z,6.06
2022-11-30T05:51:14.653Z,6.07
2022-11-30T05:52:14.659Z,6.06
2022-11-30T05:53:14.638Z,6.07
2022-11-30T05:54:14.650Z,6.06
2022-11-30T05:55:14.634Z,6.06
2022-11-30T05:56:14.641Z,6.06
2022-11-30T05:57:14.659Z,6.06
2022-11-30T05:58:14.638Z,6.07
2022-11-30T05:59:14.620Z,6.06
2022-11-30T06:00:14.649Z,6.07
2022-11-30T06:01:14.651Z,6.07
2022-11-30T06:02:14.707Z,6.06
2022-11-30T06:03:14.729Z,6.06
2022-11-30T06:04:14.631Z,6.05
2022-11-30T06:05:14.641Z,6.05
2022-11-30T06:06:14.658Z,6.04
2022-11-30T06:07:14.650Z,6.03
2022-11-30T06:08:14.627Z,6.04
2022-11-30T06:09:14.657Z,6.03
2022-11-30T06:10:14.671Z,6.03
2022-11-30T06:11:14.652Z,6.04
2022-11-30T06:12:14.665Z,6.03
2022-11-30T06:13:14.656Z,6.03
2022-11-30T06:14:14.655Z,6.03
2022-11-30T06:15:14.688Z,6.03
2022-11-30T06:16:14.713Z,6.02
2022-11-30T06:17:14.660Z,6.03
2022-11-30T06:18:14.664Z,6.03
2022-11-30T06:19:14.664Z,6.03
2022-11-30T06:20:14.692Z,6.04
2022-11-30T06:21:15.169Z,6.05
2022-11-30T06:22:14.665Z,6.04
2022-11-30T06:23:14.689Z,6.04
2022-11-30T06:24:14.715Z,6.05
2022-11-30T06:25:14.797Z,6.04
2022-11-30T06:26:14.716Z,6.04
2022-11-30T06:27:14.735Z,6.06
2022-11-30T06:28:14.738Z,6.04
2022-11-30T06:29:14.775Z,6.05
2022-11-30T06:30:14.781Z,6.04
2022-11-30T06:31:14.865Z,6.04
2022-11-30T06:32:14.782Z,6.06
2022-11-30T06:33:14.806Z,6.06
2022-11-30T06:34:14.834Z,6.06
2022-11-30T06:35:14.865Z,6.05
2022-11-30T06:36:14.871Z,6.05
2022-11-30T06:37:14.863Z,6.06
2022-11-30T06:38:14.858Z,6.06
2022-11-30T06:39:14.877Z,6.08
2022-11-30T06:40:14.888Z,6.07
2022-11-30T06:41:14.925Z,6.08
2022-11-30T06:42:14.919Z,6.07
2022-11-30T06:43:14.923Z,6.07
2022-11-30T06:44:14.946Z,6.06
2022-11-30T06:45:14.934Z,6.06
2022-11-30T06:46:15.023Z,6.06
2022-11-30T06:47:14.971Z,6.06
2022-11-30T06:48:15.004Z,6.07
2022-11-30T06:49:14.988Z,6.08
2022-11-30T06:50:15.025Z,6.09
2022-11-30T06:51:15.023Z,6.09
2022-11-30T06:52:15.024Z,6.12
2022-11-30T06:53:15.047Z,6.11
2022-11-30T06:54:15.065Z,6.12
2022-11-30T06:55:15.092Z,6.12
2022-11-30T06:56:15.199Z,6.12
2022-11-30T06:57:15.214Z,6.11
2022-11-30T06:58:15.122Z,6.11
2022-11-30T06:59:15.120Z,6.11
2022-11-30T07:00:15.141Z,6.10
2022-11-30T07:01:15.276Z,6.10
2022-11-30T07:02:18.277Z,6.12
2022-11-30T07:03:15.141Z,6.12
2022-11-30T07:04:15.207Z,6.14
2022-11-30T07:05:15.139Z,6.13
2022-11-30T07:06:15.147Z,6.13
2022-11-30T07:07:15.188Z,6.13
2022-11-30T07:08:15.169Z,6.13
2022-11-30T07:09:15.167Z,6.13
2022-11-30T07:10:19.966Z,6.12
2022-11-30T07:11:15.169Z,6.11
2022-11-30T07:12:15.171Z,6.11
2022-11-30T07:13:15.177Z,6.12
2022-11-30T07:14:15.160Z,6.12
2022-11-30T07:15:15.152Z,6.11
2022-11-30T07:16:15.220Z,6.12
2022-11-30T07:17:15.168Z,6.11
2022-11-30T07:18:15.172Z,6.12
2022-11-30T07:19:15.168Z,6.13
2022-11-30T07:20:15.161Z,6.14
2022-11-30T07:21:15.150Z,6.14
2022-11-30T07:22:15.175Z,6.15
2022-11-30T07:23:15.193Z,6.15
2022-11-30T07:24:15.195Z,6.16
2022-11-30T07:25:15.150Z,6.17
2022-11-30T07:26:15.172Z,6.19
2022-11-30T07:27:15.175Z,6.19
2022-11-30T07:28:15.211Z,6.20
2022-11-30T07:29:15.198Z,6.20
2022-11-30T07:30:15.205Z,6.20
2022-11-30T07:31:16.701Z,6.22
2022-11-30T07:32:15.250Z,6.22
2022-11-30T07:33:15.166Z,6.21
2022-11-30T07:34:15.197Z,6.22
2022-11-30T07:35:15.205Z,6.21
2022-11-30T07:36:15.195Z,6.20
2022-11-30T07:37:15.209Z,6.22
2022-11-30T07:38:15.206Z,6.23
2022-11-30T07:39:15.182Z,6.22
2022-11-30T07:40:15.235Z,6.21
2022-11-30T07:41:15.168Z,6.23
2022-11-30T07:42:15.178Z,6.23
2022-11-30T07:43:15.196Z,6.24
2022-11-30T07:44:15.185Z,6.26
2022-11-30T07:45:15.191Z,6.25
2022-11-30T07:46:15.245Z,6.26
2022-11-30T07:47:15.202Z,6.28
2022-11-30T07:48:15.210Z,6.29
2022-11-30T07:49:15.199Z,6.31
2022-11-30T07:50:15.221Z,6.31
2022-11-30T07:51:15.416Z,6.32
2022-11-30T07:52:15.212Z,6.33
2022-11-30T07:53:31.962Z,6.36
2022-11-30T07:54:31.991Z,6.37
2022-11-30T07:55:32.012Z,6.38
2022-11-30T07:56:32.009Z,6.39
2022-11-30T07:57:31.978Z,6.39
2022-11-30T07:58:31.984Z,6.40
2022-11-30T07:59:31.969Z,6.40
2022-11-30T08:00:31.985Z,6.40
2022-11-30T08:01:32.131Z,6.42
2022-11-30T08:02:32.027Z,6.43
2022-11-30T08:03:36.589Z,6.44
2022-11-30T08:04:31.986Z,6.45
2022-11-30T08:05:31.966Z,6.44
2022-11-30T08:06:31.979Z,6.43
2022-11-30T08:07:32.088Z,6.44
2022-11-30T08:08:31.974Z,6.45
2022-11-30T08:09:31.974Z,6.45
2022-11-30T08:10:31.981Z,6.45
2022-11-30T08:11:31.994Z,6.46
2022-11-30T08:12:32.000Z,6.47
2022-11-30T08:13:31.978Z,6.45
2022-11-30T08:14:45.388Z,6.45
2022-11-30T08:15:33.347Z,6.46
2022-11-30T08:16:32.074Z,6.45
2022-11-30T08:17:31.989Z,6.44
2022-11-30T08:18:31.990Z,6.42
2022-11-30T08:19:32.010Z,6.40
2022-11-30T08:20:32.008Z,6.38
2022-11-30T08:21:31.995Z,6.37
2022-11-30T08:22:32.018Z,6.36
2022-11-30T08:23:31.997Z,6.36
2022-11-30T08:24:32.055Z,6.36
2022-11-30T08:25:31.997Z,6.36
2022-11-30T08:26:32.011Z,6.37
2022-11-30T08:27:32.000Z,6.38
2022-11-30T08:28:32.129Z,6.38
2022-11-30T08:29:32.152Z,6.40
2022-11-30T08:30:32.786Z,6.38
2022-11-30T08:31:32.245Z,6.40
2022-11-30T08:32:32.223Z,6.39
2022-11-30T08:33:32.211Z,6.42
2022-11-30T08:34:32.242Z,6.43
2022-11-30T08:35:32.205Z,6.44
2022-11-30T08:36:32.229Z,6.45
2022-11-30T08:37:32.248Z,6.47
2022-11-30T08:38:32.258Z,6.48
2022-11-30T08:39:32.261Z,6.49
2022-11-30T08:40:32.282Z,6.49
2022-11-30T08:41:32.308Z,6.48
2022-11-30T08:42:32.329Z,6.49
2022-11-30T08:43:32.320Z,6.51
2022-11-30T08:44:32.333Z,6.50
2022-11-30T08:45:32.338Z,6.49
2022-11-30T08:46:50.772Z,6.46
2022-11-30T08:47:32.474Z,6.45
2022-11-30T08:48:32.361Z,6.48
2022-11-30T08:49:32.351Z,6.52
2022-11-30T08:50:32.362Z,6.50
2022-11-30T08:51:53.837Z,6.48
2022-11-30T08:52:32.385Z,6.48
2022-11-30T08:53:32.369Z,6.47
2022-11-30T08:54:32.369Z,6.46
2022-11-30T08:55:32.379Z,6.44
2022-11-30T08:56:32.362Z,6.44
2022-11-30T08:57:32.386Z,6.44
2022-11-30T08:58:32.369Z,6.46
2022-11-30T08:59:32.373Z,6.49
2022-11-30T09:00:32.366Z,6.52
2022-11-30T09:01:33.287Z,6.52
2022-11-30T09:02:32.418Z,6.53
2022-11-30T09:03:32.375Z,6.49
2022-11-30T09:04:32.373Z,6.47
2022-11-30T09:05:32.386Z,6.45
2022-11-30T09:06:32.367Z,6.47
2022-11-30T09:07:32.449Z,6.48
2022-11-30T09:08:33.549Z,6.48
2022-11-30T09:09:32.397Z,6.48
2022-11-30T09:10:32.375Z,6.52
2022-11-30T09:11:32.379Z,6.52
2022-11-30T09:12:32.410Z,6.53
2022-11-30T09:13:32.405Z,6.54
2022-11-30T09:14:32.407Z,6.56
2022-11-30T09:15:32.531Z,6.57
2022-11-30T09:16:32.432Z,6.58
2022-11-30T09:17:32.460Z,6.57
2022-11-30T09:18:32.471Z,6.58
2022-11-30T09:19:32.475Z,6.59
2022-11-30T09:20:32.484Z,6.60
2022-11-30T09:21:32.508Z,6.60
2022-11-30T09:22:32.537Z,6.63
2022-11-30T09:23:32.553Z,6.63
2022-11-30T09:24:32.541Z,6.60
2022-11-30T09:25:32.539Z,6.57
2022-11-30T09:26:32.554Z,6.57
2022-11-30T09:27:32.589Z,6.55
2022-11-30T09:28:32.574Z,6.56
2022-11-30T09:29:32.584Z,6.56
2022-11-30T09:30:32.633Z,6.60
2022-11-30T09:31:32.622Z,6.62
2022-11-30T09:32:32.653Z,6.65
2022-11-30T09:33:32.623Z,6.67
2022-11-30T09:34:32.661Z,6.69
2022-11-30T09:35:32.649Z,6.70
2022-11-30T09:36:32.693Z,6.67
2022-11-30T09:37:32.710Z,6.65
2022-11-30T09:38:32.692Z,6.63
2022-11-30T09:39:32.732Z,6.63
2022-11-30T09:40:35.631Z,6.64
2022-11-30T09:41:32.731Z,6.65
2022-11-30T09:42:32.729Z,6.65
2022-11-30T09:43:32.745Z,6.66
2022-11-30T09:44:32.729Z,6.66
2022-11-30T09:45:32.807Z,6.65
2022-11-30T09:46:32.722Z,6.65
2022-11-30T09:47:32.758Z,6.69
2022-11-30T09:48:32.746Z,6.69
2022-11-30T09:49:32.757Z,6.64
2022-11-30T09:50:32.737Z,6.65
2022-11-30T09:51:32.726Z,6.65
2022-11-30T09:52:32.744Z,6.66
2022-11-30T09:53:32.768Z,6.67
2022-11-30T09:54:32.728Z,6.70
2022-11-30T09:55:32.736Z,6.72
2022-11-30T09:56:32.741Z,6.74
2022-11-30T09:57:32.762Z,6.74
2022-11-30T09:58:32.757Z,6.73
2022-11-30T09:59:32.745Z,6.73
2022-11-30T10:00:32.756Z,6.75
2022-11-30T10:01:33.133Z,6.79
2022-11-30T10:02:32.900Z,6.79
2022-11-30T10:03:32.780Z,6.82
2022-11-30T10:04:32.771Z,6.81
2022-11-30T10:05:32.756Z,6.79
2022-11-30T10:06:32.772Z,6.77
2022-11-30T10:07:32.845Z,6.76
2022-11-30T10:08:32.783Z,6.77
2022-11-30T10:09:32.751Z,6.80
2022-11-30T10:10:33.580Z,6.81
2022-11-30T10:11:32.756Z,6.86
2022-11-30T10:12:32.766Z,6.87
2022-11-30T10:13:32.814Z,6.91
2022-11-30T10:14:32.768Z,6.94
2022-11-30T10:15:32.811Z,6.95
2022-11-30T10:16:32.865Z,6.97
2022-11-30T10:17:32.750Z,6.97
2022-11-30T10:18:32.763Z,6.99
2022-11-30T10:19:32.774Z,7.00
2022-11-30T10:20:32.755Z,7.04
2022-11-30T10:21:32.785Z,7.08
2022-11-30T10:22:32.764Z,7.10
2022-11-30T10:23:32.781Z,7.11
2022-11-30T10:24:32.781Z,7.12
2022-11-30T10:25:32.769Z,7.12
2022-11-30T10:26:32.798Z,7.12
2022-11-30T10:27:32.790Z,7.11
2022-11-30T10:28:47.773Z,7.12
2022-11-30T10:29:32.789Z,7.14
2022-11-30T10:30:32.763Z,7.17
2022-11-30T10:31:32.870Z,7.17
2022-11-30T10:32:32.779Z,7.19
2022-11-30T10:33:38.206Z,7.22
2022-11-30T10:34:32.802Z,7.24
2022-11-30T10:35:32.782Z,7.27
2022-11-30T10:36:32.771Z,7.30
2022-11-30T10:37:32.786Z,7.31
2022-11-30T10:38:32.781Z,7.33
2022-11-30T10:39:32.792Z,7.32
2022-11-30T10:40:32.792Z,7.29
2022-11-30T10:41:32.775Z,7.28
2022-11-30T10:42:32.791Z,7.29
2022-11-30T10:43:32.774Z,7.29
2022-11-30T10:44:32.831Z,7.28
2022-11-30T10:45:32.811Z,7.29
2022-11-30T10:46:32.829Z,7.30
2022-11-30T10:47:32.791Z,7.30
2022-11-30T10:48:32.801Z,7.30
2022-11-30T10:49:32.809Z,7.28
2022-11-30T10:50:32.803Z,7.25
2022-11-30T10:51:32.827Z,7.25
2022-11-30T10:52:32.817Z,7.27
2022-11-30T10:53:32.808Z,7.32
2022-11-30T10:54:32.823Z,7.35
2022-11-30T10:55:32.805Z,7.36
2022-11-30T10:56:32.786Z,7.36
2022-11-30T10:57:32.820Z,7.36
2022-11-30T10:58:32.800Z,7.37
2022-11-30T10:59:32.824Z,7.38
2022-11-30T11:00:32.839Z,7.41
2022-11-30T11:01:32.823Z,7.42
2022-11-30T11:02:32.872Z,7.41
2022-11-30T11:03:32.819Z,7.41
2022-11-30T11:04:32.876Z,7.42
2022-11-30T11:05:32.801Z,7.42
2022-11-30T11:06:32.923Z,7.41
2022-11-30T11:07:32.902Z,7.39
2022-11-30T11:08:32.805Z,7.37
2022-11-30T11:09:32.826Z,7.35
2022-11-30T11:10:32.831Z,7.34
2022-11-30T11:11:32.814Z,7.35
2022-11-30T11:12:32.810Z,7.38
2022-11-30T11:13:32.831Z,7.37
2022-11-30T11:14:37.653Z,7.37
2022-11-30T11:15:32.928Z,7.38
2022-11-30T11:16:32.831Z,7.40
2022-11-30T11:17:32.833Z,7.41
2022-11-30T11:18:32.809Z,7.43
2022-11-30T11:19:32.874Z,7.43
2022-11-30T11:20:32.840Z,7.43
2022-11-30T11:21:32.821Z,7.44
2022-11-30T11:22:32.831Z,7.45
2022-11-30T11:23:32.843Z,7.48
2022-11-30T11:24:32.845Z,7.49
2022-11-30T11:25:32.835Z,7.51
2022-11-30T11:26:32.828Z,7.53
2022-11-30T11:27:32.842Z,7.53
2022-11-30T11:28:32.861Z,7.55
2022-11-30T11:29:32.848Z,7.54
2022-11-30T11:30:32.854Z,7.56
2022-11-30T11:31:32.929Z,7.56
2022-11-30T11:32:32.825Z,7.56
2022-11-30T11:33:32.836Z,7.54
2022-11-30T11:34:32.853Z,7.52
2022-11-30T11:35:32.844Z,7.51
2022-11-30T11:36:32.861Z,7.51
2022-11-30T11:37:32.874Z,7.50
2022-11-30T11:38:32.837Z,7.49
2022-11-30T11:39:32.836Z,7.50
2022-11-30T11:40:32.837Z,7.53
2022-11-30T11:41:32.837Z,7.57
2022-11-30T11:42:32.862Z,7.59
2022-11-30T11:43:32.850Z,7.61
2022-11-30T11:44:32.856Z,7.63
2022-11-30T11:45:32.873Z,7.64
2022-11-30T11:46:32.880Z,7.66
2022-11-30T11:47:32.870Z,7.68
2022-11-30T11:48:32.859Z,7.67
2022-11-30T11:49:32.855Z,7.67
2022-11-30T11:51:05.131Z,7.68
2022-11-30T11:51:32.852Z,7.64
2022-11-30T11:52:32.874Z,7.64
2022-11-30T11:53:32.883Z,7.67
2022-11-30T11:54:32.858Z,7.67
2022-11-30T11:55:32.855Z,7.71
2022-11-30T11:56:32.857Z,7.71
2022-11-30T11:57:32.873Z,7.71
2022-11-30T11:58:32.889Z,7.72
2022-11-30T11:59:32.991Z,7.73
2022-11-30T12:00:32.863Z,7.72
2022-11-30T12:01:39.879Z,7.71
2022-11-30T12:02:32.921Z,7.71
2022-11-30T12:03:32.868Z,7.69
2022-11-30T12:04:33.028Z,7.65
2022-11-30T12:05:32.877Z,7.62
2022-11-30T12:06:32.860Z,7.59
2022-11-30T12:07:32.909Z,7.57
2022-11-30T12:08:32.874Z,7.55
2022-11-30T12:09:32.882Z,7.54
2022-11-30T12:10:51.872Z,7.55
2022-11-30T12:11:32.882Z,7.53
2022-11-30T12:12:32.856Z,7.51
2022-11-30T12:13:32.899Z,7.48
2022-11-30T12:14:32.887Z,7.46
2022-11-30T12:15:32.899Z,7.45
2022-11-30T12:16:32.990Z,7.45
2022-11-30T12:17:32.860Z,7.46
2022-11-30T12:18:32.872Z,7.47
2022-11-30T12:19:32.864Z,7.43
2022-11-30T12:20:32.885Z,7.43
2022-11-30T12:21:32.896Z,7.42
2022-11-30T12:22:32.898Z,7.41
2022-11-30T12:23:32.883Z,7.41
2022-11-30T12:24:32.887Z,7.44
2022-11-30T12:25:32.911Z,7.45
2022-11-30T12:26:32.885Z,7.47
2022-11-30T12:27:32.901Z,7.48
2022-11-30T12:28:32.895Z,7.49
2022-11-30T12:29:32.891Z,7.50
2022-11-30T12:30:32.886Z,7.51
2022-11-30T12:31:33.017Z,7.50
2022-11-30T12:32:32.902Z,7.52
2022-11-30T12:33:32.877Z,7.52
2022-11-30T12:34:32.906Z,7.52
2022-11-30T12:35:32.907Z,7.55
2022-11-30T12:36:32.899Z,7.54
2022-11-30T12:37:32.926Z,7.51
2022-11-30T12:38:32.927Z,7.50
2022-11-30T12:39:32.890Z,7.51
2022-11-30T12:40:32.906Z,7.51
2022-11-30T12:41:32.894Z,7.50
2022-11-30T12:42:32.932Z,7.50
2022-11-30T12:43:32.915Z,7.50
2022-11-30T12:44:38.337Z,7.51
2022-11-30T12:45:32.894Z,7.51
2022-11-30T12:46:32.957Z,7.55
2022-11-30T12:47:32.920Z,7.56
2022-11-30T12:48:32.998Z,7.57
2022-11-30T12:49:32.928Z,7.57
2022-11-30T12:50:32.907Z,7.58
2022-11-30T12:51:32.910Z,7.60
2022-11-30T12:52:32.918Z,7.62
2022-11-30T12:53:32.913Z,7.61
2022-11-30T12:54:32.924Z,7.58
2022-11-30T12:55:32.918Z,7.58
2022-11-30T12:56:32.916Z,7.60
2022-11-30T12:57:32.937Z,7.60
2022-11-30T12:58:32.962Z,7.63
2022-11-30T12:59:32.925Z,7.65
2022-11-30T13:00:33.001Z,7.69
2022-11-30T13:01:33.132Z,7.72
2022-11-30T13:02:32.943Z,7.73
2022-11-30T13:03:32.948Z,7.75
2022-11-30T13:04:32.931Z,7.77
2022-11-30T13:05:32.922Z,7.78
2022-11-30T13:06:32.958Z,7.78
2022-11-30T13:07:32.994Z,7.77
2022-11-30T13:08:32.947Z,7.79
2022-11-30T13:09:32.928Z,7.82
2022-11-30T13:10:32.921Z,7.84
2022-11-30T13:11:32.932Z,7.88
2022-11-30T13:12:32.941Z,7.88
2022-11-30T13:13:32.977Z,7.90
2022-11-30T13:14:32.934Z,7.90
2022-11-30T13:15:32.947Z,7.92
2022-11-30T13:16:32.992Z,7.91
2022-11-30T13:17:32.940Z,7.89
2022-11-30T13:18:32.979Z,7.87
2022-11-30T13:19:32.930Z,7.87